sensor_id;sensor_type;location;lat;lon;timestamp;P1;durP1;ratioP1;P2;durP2;ratioP2
22711;SDS011;11523;50.390;8.072;2023-12-20T00:02:19;2.00;;;0.70;;
22711;SDS011;11523;50.390;8.072;2023-12-20T00:04:45;1.10;;;0.70;;
22711;SDS011;11523;50.390;8.072;2023-12-20T00:07:18;0.65;;;0.57;;
22711;SDS011;11523;50.390;8.072;2023-12-20T00:09:44;1.95;;;0.70;;
22711;SDS011;11523;50.390;8.072;2023-12-20T00:12:09;1.35;;;0.90;;
22711;SDS011;11523;50.390;8.072;2023-12-20T00:14:35;1.98;;;0.82;;
22711;SDS011;11523;50.390;8.072;2023-12-20T00:17:01;1.42;;;1.00;;
22711;SDS011;11523;50.390;8.072;2023-12-20T00:19:27;0.90;;;0.70;;
22711;SDS011;11523;50.390;8.072;2023-12-20T00:21:53;0.80;;;0.70;;
22711;SDS011;11523;50.390;8.072;2023-12-20T00:24:19;1.00;;;0.88;;
22711;SDS011;11523;50.390;8.072;2023-12-20T00:26:45;1.45;;;0.93;;
22711;SDS011;11523;50.390;8.072;2023-12-20T00:29:11;0.80;;;0.80;;
22711;SDS011;11523;50.390;8.072;2023-12-20T00:31:37;0.82;;;0.80;;
22711;SDS011;11523;50.390;8.072;2023-12-20T00:34:03;0.80;;;0.73;;
22711;SDS011;11523;50.390;8.072;2023-12-20T00:36:29;1.00;;;0.90;;
22711;SDS011;11523;50.390;8.072;2023-12-20T00:38:55;0.93;;;0.80;;
22711;SDS011;11523;50.390;8.072;2023-12-20T00:41:22;0.80;;;0.73;;
22711;SDS011;11523;50.390;8.072;2023-12-20T00:43:47;0.90;;;0.80;;
22711;SDS011;11523;50.390;8.072;2023-12-20T00:46:13;1.23;;;0.90;;
22711;SDS011;11523;50.390;8.072;2023-12-20T00:48:39;1.42;;;0.82;;
22711;SDS011;11523;50.390;8.072;2023-12-20T00:51:07;1.00;;;0.90;;
22711;SDS011;11523;50.390;8.072;2023-12-20T00:53:33;0.95;;;0.85;;
22711;SDS011;11523;50.390;8.072;2023-12-20T00:55:59;2.38;;;0.70;;
22711;SDS011;11523;50.390;8.072;2023-12-20T00:58:25;1.08;;;0.90;;
22711;SDS011;11523;50.390;8.072;2023-12-20T01:00:52;1.52;;;0.93;;
22711;SDS011;11523;50.390;8.072;2023-12-20T01:03:18;0.80;;;0.70;;
22711;SDS011;11523;50.390;8.072;2023-12-20T01:05:44;0.80;;;0.80;;
22711;SDS011;11523;50.390;8.072;2023-12-20T01:08:10;1.58;;;0.60;;
22711;SDS011;11523;50.390;8.072;2023-12-20T01:10:37;0.43;;;0.43;;
22711;SDS011;11523;50.390;8.072;2023-12-20T01:13:03;0.70;;;0.70;;
22711;SDS011;11523;50.390;8.072;2023-12-20T01:15:29;0.88;;;0.80;;
22711;SDS011;11523;50.390;8.072;2023-12-20T01:17:55;1.38;;;1.02;;
22711;SDS011;11523;50.390;8.072;2023-12-20T01:20:23;0.47;;;0.47;;
22711;SDS011;11523;50.390;8.072;2023-12-20T01:22:49;1.17;;;0.80;;
22711;SDS011;11523;50.390;8.072;2023-12-20T01:25:15;1.98;;;0.80;;
22711;SDS011;11523;50.390;8.072;2023-12-20T01:27:41;0.85;;;0.80;;
22711;SDS011;11523;50.390;8.072;2023-12-20T01:30:07;1.00;;;0.90;;
22711;SDS011;11523;50.390;8.072;2023-12-20T01:32:33;0.70;;;0.70;;
22711;SDS011;11523;50.390;8.072;2023-12-20T01:34:59;1.00;;;0.77;;
22711;SDS011;11523;50.390;8.072;2023-12-20T01:37:25;1.08;;;0.80;;
22711;SDS011;11523;50.390;8.072;2023-12-20T01:39:58;0.80;;;0.70;;
22711;SDS011;11523;50.390;8.072;2023-12-20T01:42:24;0.80;;;0.80;;
22711;SDS011;11523;50.390;8.072;2023-12-20T01:44:50;0.73;;;0.73;;
22711;SDS011;11523;50.390;8.072;2023-12-20T01:47:16;1.38;;;0.85;;
22711;SDS011;11523;50.390;8.072;2023-12-20T01:49:42;0.98;;;0.90;;
22711;SDS011;11523;50.390;8.072;2023-12-20T01:52:08;0.80;;;0.80;;
22711;SDS011;11523;50.390;8.072;2023-12-20T01:54:34;0.80;;;0.80;;
22711;SDS011;11523;50.390;8.072;2023-12-20T01:57:01;0.80;;;0.80;;
22711;SDS011;11523;50.390;8.072;2023-12-20T01:59:28;1.20;;;1.10;;
22711;SDS011;11523;50.390;8.072;2023-12-20T02:01:54;1.40;;;1.00;;
22711;SDS011;11523;50.390;8.072;2023-12-20T02:04:20;1.00;;;0.90;;
22711;SDS011;11523;50.390;8.072;2023-12-20T02:06:46;0.80;;;0.80;;
22711;SDS011;11523;50.390;8.072;2023-12-20T02:09:12;1.00;;;0.90;;
22711;SDS011;11523;50.390;8.072;2023-12-20T02:11:38;0.90;;;0.90;;
22711;SDS011;11523;50.390;8.072;2023-12-20T02:14:04;1.02;;;1.02;;
22711;SDS011;11523;50.390;8.072;2023-12-20T02:16:30;1.75;;;0.80;;
22711;SDS011;11523;50.390;8.072;2023-12-20T02:18:56;1.10;;;1.00;;
22711;SDS011;11523;50.390;8.072;2023-12-20T02:21:25;1.00;;;1.00;;
22711;SDS011;11523;50.390;8.072;2023-12-20T02:23:51;1.00;;;0.90;;
22711;SDS011;11523;50.390;8.072;2023-12-20T02:26:17;1.00;;;0.90;;
22711;SDS011;11523;50.390;8.072;2023-12-20T02:28:43;1.70;;;1.10;;
22711;SDS011;11523;50.390;8.072;2023-12-20T02:31:09;1.33;;;1.15;;
22711;SDS011;11523;50.390;8.072;2023-12-20T02:33:35;1.40;;;1.08;;
22711;SDS011;11523;50.390;8.072;2023-12-20T02:36:01;1.35;;;1.00;;
22711;SDS011;11523;50.390;8.072;2023-12-20T02:38:27;0.82;;;0.80;;
22711;SDS011;11523;50.390;8.072;2023-12-20T02:40:53;1.58;;;1.20;;
22711;SDS011;11523;50.390;8.072;2023-12-20T02:43:19;1.20;;;1.10;;
22711;SDS011;11523;50.390;8.072;2023-12-20T02:45:45;1.80;;;1.30;;
22711;SDS011;11523;50.390;8.072;2023-12-20T02:48:11;1.10;;;1.10;;
22711;SDS011;11523;50.390;8.072;2023-12-20T02:50:37;1.10;;;1.00;;
22711;SDS011;11523;50.390;8.072;2023-12-20T02:53:02;1.20;;;1.10;;
22711;SDS011;11523;50.390;8.072;2023-12-20T02:55:28;1.17;;;1.08;;
22711;SDS011;11523;50.390;8.072;2023-12-20T02:57:54;2.20;;;1.20;;
22711;SDS011;11523;50.390;8.072;2023-12-20T03:00:20;3.25;;;1.73;;
22711;SDS011;11523;50.390;8.072;2023-12-20T03:02:46;1.92;;;1.23;;
22711;SDS011;11523;50.390;8.072;2023-12-20T03:05:12;1.20;;;1.10;;
22711;SDS011;11523;50.390;8.072;2023-12-20T03:07:38;1.15;;;0.90;;
22711;SDS011;11523;50.390;8.072;2023-12-20T03:10:04;1.25;;;0.93;;
22711;SDS011;11523;50.390;8.072;2023-12-20T03:12:32;1.20;;;1.10;;
22711;SDS011;11523;50.390;8.072;2023-12-20T03:14:58;1.10;;;1.00;;
22711;SDS011;11523;50.390;8.072;2023-12-20T03:17:24;1.58;;;1.20;;
22711;SDS011;11523;50.390;8.072;2023-12-20T03:19:50;1.42;;;1.05;;
22711;SDS011;11523;50.390;8.072;2023-12-20T03:22:16;1.02;;;0.95;;
22711;SDS011;11523;50.390;8.072;2023-12-20T03:24:42;1.10;;;1.00;;
22711;SDS011;11523;50.390;8.072;2023-12-20T03:27:08;1.23;;;1.02;;
22711;SDS011;11523;50.390;8.072;2023-12-20T03:29:34;2.60;;;1.40;;
22711;SDS011;11523;50.390;8.072;2023-12-20T03:32:06;5.35;;;2.30;;
22711;SDS011;11523;50.390;8.072;2023-12-20T03:34:33;3.17;;;1.90;;
22711;SDS011;11523;50.390;8.072;2023-12-20T03:36:59;2.75;;;1.60;;
22711;SDS011;11523;50.390;8.072;2023-12-20T03:39:25;4.85;;;1.88;;
22711;SDS011;11523;50.390;8.072;2023-12-20T03:41:51;4.93;;;1.90;;
22711;SDS011;11523;50.390;8.072;2023-12-20T03:44:17;2.22;;;1.50;;
22711;SDS011;11523;50.390;8.072;2023-12-20T03:46:43;2.17;;;1.98;;
22711;SDS011;11523;50.390;8.072;2023-12-20T03:49:10;4.28;;;2.42;;
22711;SDS011;11523;50.390;8.072;2023-12-20T03:51:36;2.38;;;2.17;;
22711;SDS011;11523;50.390;8.072;2023-12-20T03:54:02;4.97;;;2.28;;
22711;SDS011;11523;50.390;8.072;2023-12-20T03:56:28;3.33;;;2.95;;
22711;SDS011;11523;50.390;8.072;2023-12-20T03:58:54;4.88;;;3.60;;
22711;SDS011;11523;50.390;8.072;2023-12-20T04:01:20;6.45;;;3.17;;
22711;SDS011;11523;50.390;8.072;2023-12-20T04:03:46;7.90;;;3.17;;
22711;SDS011;11523;50.390;8.072;2023-12-20T04:06:16;3.92;;;2.60;;
22711;SDS011;11523;50.390;8.072;2023-12-20T04:08:42;6.47;;;3.75;;
22711;SDS011;11523;50.390;8.072;2023-12-20T04:11:08;7.97;;;3.08;;
22711;SDS011;11523;50.390;8.072;2023-12-20T04:13:34;3.95;;;2.55;;
22711;SDS011;11523;50.390;8.072;2023-12-20T04:16:00;6.13;;;3.20;;
22711;SDS011;11523;50.390;8.072;2023-12-20T04:18:25;8.18;;;3.25;;
22711;SDS011;11523;50.390;8.072;2023-12-20T04:20:53;10.75;;;3.17;;
22711;SDS011;11523;50.390;8.072;2023-12-20T04:23:19;7.18;;;2.22;;
22711;SDS011;11523;50.390;8.072;2023-12-20T04:25:45;7.70;;;2.50;;
22711;SDS011;11523;50.390;8.072;2023-12-20T04:28:11;7.97;;;1.90;;
22711;SDS011;11523;50.390;8.072;2023-12-20T04:30:37;8.93;;;2.45;;
22711;SDS011;11523;50.390;8.072;2023-12-20T04:33:03;12.15;;;2.88;;
22711;SDS011;11523;50.390;8.072;2023-12-20T04:35:29;6.55;;;3.10;;
22711;SDS011;11523;50.390;8.072;2023-12-20T04:37:55;11.25;;;2.70;;
22711;SDS011;11523;50.390;8.072;2023-12-20T04:40:21;10.10;;;2.67;;
22711;SDS011;11523;50.390;8.072;2023-12-20T04:42:48;7.13;;;2.42;;
22711;SDS011;11523;50.390;8.072;2023-12-20T04:45:14;10.93;;;2.92;;
22711;SDS011;11523;50.390;8.072;2023-12-20T04:47:41;7.43;;;2.40;;
22711;SDS011;11523;50.390;8.072;2023-12-20T04:50:07;6.38;;;1.77;;
22711;SDS011;11523;50.390;8.072;2023-12-20T04:52:34;6.18;;;2.22;;
22711;SDS011;11523;50.390;8.072;2023-12-20T04:55:01;7.22;;;2.22;;
22711;SDS011;11523;50.390;8.072;2023-12-20T04:57:26;8.25;;;2.38;;
22711;SDS011;11523;50.390;8.072;2023-12-20T04:59:52;7.22;;;2.20;;
22711;SDS011;11523;50.390;8.072;2023-12-20T05:02:18;11.90;;;2.35;;
22711;SDS011;11523;50.390;8.072;2023-12-20T05:04:44;8.95;;;2.17;;
22711;SDS011;11523;50.390;8.072;2023-12-20T05:07:11;8.30;;;2.10;;
22711;SDS011;11523;50.390;8.072;2023-12-20T05:09:36;6.95;;;2.30;;
22711;SDS011;11523;50.390;8.072;2023-12-20T05:12:03;8.70;;;2.20;;
22711;SDS011;11523;50.390;8.072;2023-12-20T05:14:29;9.13;;;2.10;;
22711;SDS011;11523;50.390;8.072;2023-12-20T05:16:55;8.98;;;1.52;;
22711;SDS011;11523;50.390;8.072;2023-12-20T05:19:21;11.32;;;2.13;;
22711;SDS011;11523;50.390;8.072;2023-12-20T05:21:47;11.25;;;2.17;;
22711;SDS011;11523;50.390;8.072;2023-12-20T05:24:13;8.68;;;2.85;;
22711;SDS011;11523;50.390;8.072;2023-12-20T05:26:39;10.63;;;2.25;;
22711;SDS011;11523;50.390;8.072;2023-12-20T05:29:05;8.32;;;2.00;;
22711;SDS011;11523;50.390;8.072;2023-12-20T05:31:31;6.55;;;2.03;;
22711;SDS011;11523;50.390;8.072;2023-12-20T05:33:57;8.25;;;1.92;;
22711;SDS011;11523;50.390;8.072;2023-12-20T05:36:23;8.63;;;2.25;;
22711;SDS011;11523;50.390;8.072;2023-12-20T05:38:56;5.63;;;1.67;;
22711;SDS011;11523;50.390;8.072;2023-12-20T05:41:22;6.72;;;2.13;;
22711;SDS011;11523;50.390;8.072;2023-12-20T05:43:48;9.23;;;2.15;;
22711;SDS011;11523;50.390;8.072;2023-12-20T05:46:14;5.07;;;1.50;;
22711;SDS011;11523;50.390;8.072;2023-12-20T05:48:39;10.73;;;3.13;;
22711;SDS011;11523;50.390;8.072;2023-12-20T05:51:05;4.60;;;1.52;;
22711;SDS011;11523;50.390;8.072;2023-12-20T05:53:31;5.38;;;2.13;;
22711;SDS011;11523;50.390;8.072;2023-12-20T05:55:57;6.65;;;1.92;;
22711;SDS011;11523;50.390;8.072;2023-12-20T05:58:23;4.95;;;1.88;;
22711;SDS011;11523;50.390;8.072;2023-12-20T06:00:49;10.02;;;2.03;;
22711;SDS011;11523;50.390;8.072;2023-12-20T06:03:15;4.65;;;1.90;;
22711;SDS011;11523;50.390;8.072;2023-12-20T06:05:41;6.07;;;1.65;;
22711;SDS011;11523;50.390;8.072;2023-12-20T06:08:14;8.23;;;1.85;;
22711;SDS011;11523;50.390;8.072;2023-12-20T06:10:46;7.05;;;2.13;;
22711;SDS011;11523;50.390;8.072;2023-12-20T06:13:12;8.13;;;2.10;;
22711;SDS011;11523;50.390;8.072;2023-12-20T06:15:38;9.50;;;2.42;;
22711;SDS011;11523;50.390;8.072;2023-12-20T06:18:05;6.38;;;2.42;;
22711;SDS011;11523;50.390;8.072;2023-12-20T06:20:31;6.05;;;1.85;;
22711;SDS011;11523;50.390;8.072;2023-12-20T06:22:57;4.28;;;1.77;;
22711;SDS011;11523;50.390;8.072;2023-12-20T06:25:22;6.10;;;1.75;;
22711;SDS011;11523;50.390;8.072;2023-12-20T06:27:48;8.13;;;2.25;;
22711;SDS011;11523;50.390;8.072;2023-12-20T06:30:15;6.47;;;1.88;;
22711;SDS011;11523;50.390;8.072;2023-12-20T06:32:41;5.45;;;2.10;;
22711;SDS011;11523;50.390;8.072;2023-12-20T06:35:07;8.35;;;2.60;;
22711;SDS011;11523;50.390;8.072;2023-12-20T06:37:33;6.53;;;2.33;;
22711;SDS011;11523;50.390;8.072;2023-12-20T06:39:59;7.63;;;2.45;;
22711;SDS011;11523;50.390;8.072;2023-12-20T06:42:25;5.68;;;1.75;;
22711;SDS011;11523;50.390;8.072;2023-12-20T06:44:51;7.93;;;2.47;;
22711;SDS011;11523;50.390;8.072;2023-12-20T06:47:17;6.35;;;2.20;;
22711;SDS011;11523;50.390;8.072;2023-12-20T06:49:43;8.13;;;2.22;;
22711;SDS011;11523;50.390;8.072;2023-12-20T06:52:09;6.80;;;2.20;;
22711;SDS011;11523;50.390;8.072;2023-12-20T06:54:35;10.80;;;2.50;;
22711;SDS011;11523;50.390;8.072;2023-12-20T06:57:01;8.23;;;2.33;;
22711;SDS011;11523;50.390;8.072;2023-12-20T06:59:29;6.75;;;2.33;;
22711;SDS011;11523;50.390;8.072;2023-12-20T07:01:55;9.40;;;2.70;;
22711;SDS011;11523;50.390;8.072;2023-12-20T07:04:21;9.20;;;2.10;;
22711;SDS011;11523;50.390;8.072;2023-12-20T07:06:50;4.05;;;2.00;;
22711;SDS011;11523;50.390;8.072;2023-12-20T07:09:22;5.22;;;2.22;;
22711;SDS011;11523;50.390;8.072;2023-12-20T07:11:48;7.47;;;2.53;;
22711;SDS011;11523;50.390;8.072;2023-12-20T07:14:14;9.30;;;2.50;;
22711;SDS011;11523;50.390;8.072;2023-12-20T07:16:40;19.00;;;2.92;;
22711;SDS011;11523;50.390;8.072;2023-12-20T07:19:06;9.10;;;2.40;;
22711;SDS011;11523;50.390;8.072;2023-12-20T07:21:32;7.93;;;2.47;;
22711;SDS011;11523;50.390;8.072;2023-12-20T07:23:58;11.15;;;2.55;;
22711;SDS011;11523;50.390;8.072;2023-12-20T07:26:23;9.00;;;2.10;;
22711;SDS011;11523;50.390;8.072;2023-12-20T07:28:49;6.95;;;2.15;;
22711;SDS011;11523;50.390;8.072;2023-12-20T07:31:15;10.18;;;2.45;;
22711;SDS011;11523;50.390;8.072;2023-12-20T07:33:42;13.45;;;2.58;;
22711;SDS011;11523;50.390;8.072;2023-12-20T07:36:08;10.10;;;2.83;;
22711;SDS011;11523;50.390;8.072;2023-12-20T07:38:34;7.53;;;2.50;;
22711;SDS011;11523;50.390;8.072;2023-12-20T07:41:08;7.97;;;2.67;;
22711;SDS011;11523;50.390;8.072;2023-12-20T07:43:34;11.18;;;2.83;;
22711;SDS011;11523;50.390;8.072;2023-12-20T07:46:07;8.25;;;2.10;;
22711;SDS011;11523;50.390;8.072;2023-12-20T07:48:34;8.75;;;2.40;;
22711;SDS011;11523;50.390;8.072;2023-12-20T07:51:01;7.18;;;2.72;;
22711;SDS011;11523;50.390;8.072;2023-12-20T07:53:27;9.70;;;2.58;;
22711;SDS011;11523;50.390;8.072;2023-12-20T07:55:53;4.90;;;1.98;;
22711;SDS011;11523;50.390;8.072;2023-12-20T07:58:19;5.20;;;2.30;;
22711;SDS011;11523;50.390;8.072;2023-12-20T08:00:45;8.88;;;2.53;;
22711;SDS011;11523;50.390;8.072;2023-12-20T08:03:11;9.50;;;2.70;;
22711;SDS011;11523;50.390;8.072;2023-12-20T08:05:39;6.90;;;2.13;;
22711;SDS011;11523;50.390;8.072;2023-12-20T08:08:05;8.80;;;2.40;;
22711;SDS011;11523;50.390;8.072;2023-12-20T08:10:31;6.72;;;2.13;;
22711;SDS011;11523;50.390;8.072;2023-12-20T08:12:57;11.07;;;2.67;;
22711;SDS011;11523;50.390;8.072;2023-12-20T08:15:23;5.80;;;2.17;;
22711;SDS011;11523;50.390;8.072;2023-12-20T08:17:49;8.85;;;2.50;;
22711;SDS011;11523;50.390;8.072;2023-12-20T08:20:18;11.15;;;2.53;;
22711;SDS011;11523;50.390;8.072;2023-12-20T08:22:44;6.30;;;1.98;;
22711;SDS011;11523;50.390;8.072;2023-12-20T08:25:10;9.88;;;2.60;;
22711;SDS011;11523;50.390;8.072;2023-12-20T08:27:39;11.13;;;2.63;;
22711;SDS011;11523;50.390;8.072;2023-12-20T08:30:06;8.55;;;2.03;;
22711;SDS011;11523;50.390;8.072;2023-12-20T08:32:33;8.00;;;2.38;;
22711;SDS011;11523;50.390;8.072;2023-12-20T08:34:59;5.88;;;1.90;;
22711;SDS011;11523;50.390;8.072;2023-12-20T08:37:25;7.07;;;2.40;;
22711;SDS011;11523;50.390;8.072;2023-12-20T08:39:51;7.28;;;2.38;;
22711;SDS011;11523;50.390;8.072;2023-12-20T08:42:17;8.95;;;2.40;;
22711;SDS011;11523;50.390;8.072;2023-12-20T08:44:43;7.82;;;2.50;;
22711;SDS011;11523;50.390;8.072;2023-12-20T08:47:09;7.32;;;1.83;;
22711;SDS011;11523;50.390;8.072;2023-12-20T08:49:38;7.22;;;2.60;;
22711;SDS011;11523;50.390;8.072;2023-12-20T08:52:04;6.95;;;2.00;;
22711;SDS011;11523;50.390;8.072;2023-12-20T08:54:30;11.98;;;2.58;;
22711;SDS011;11523;50.390;8.072;2023-12-20T08:56:56;9.75;;;2.50;;
22711;SDS011;11523;50.390;8.072;2023-12-20T08:59:22;9.48;;;1.92;;
22711;SDS011;11523;50.390;8.072;2023-12-20T09:01:48;7.45;;;2.28;;
22711;SDS011;11523;50.390;8.072;2023-12-20T09:04:19;10.63;;;2.53;;
22711;SDS011;11523;50.390;8.072;2023-12-20T09:06:45;8.65;;;2.60;;
22711;SDS011;11523;50.390;8.072;2023-12-20T09:09:10;11.32;;;2.35;;
22711;SDS011;11523;50.390;8.072;2023-12-20T09:11:38;9.02;;;2.63;;
22711;SDS011;11523;50.390;8.072;2023-12-20T09:14:04;9.85;;;2.65;;
22711;SDS011;11523;50.390;8.072;2023-12-20T09:16:30;6.80;;;2.10;;
22711;SDS011;11523;50.390;8.072;2023-12-20T09:18:56;13.40;;;3.15;;
22711;SDS011;11523;50.390;8.072;2023-12-20T09:21:22;5.95;;;2.42;;
22711;SDS011;11523;50.390;8.072;2023-12-20T09:23:48;10.20;;;2.70;;
22711;SDS011;11523;50.390;8.072;2023-12-20T09:26:14;11.15;;;2.53;;
22711;SDS011;11523;50.390;8.072;2023-12-20T09:28:40;7.25;;;2.20;;
22711;SDS011;11523;50.390;8.072;2023-12-20T09:31:06;9.30;;;2.97;;
22711;SDS011;11523;50.390;8.072;2023-12-20T09:33:33;10.77;;;2.72;;
22711;SDS011;11523;50.390;8.072;2023-12-20T09:35:59;7.95;;;2.35;;
22711;SDS011;11523;50.390;8.072;2023-12-20T09:38:25;9.32;;;2.42;;
22711;SDS011;11523;50.390;8.072;2023-12-20T09:40:51;8.60;;;1.98;;
22711;SDS011;11523;50.390;8.072;2023-12-20T09:43:19;3.75;;;1.65;;
22711;SDS011;11523;50.390;8.072;2023-12-20T09:45:45;10.55;;;2.60;;
22711;SDS011;11523;50.390;8.072;2023-12-20T09:48:12;5.72;;;1.63;;
22711;SDS011;11523;50.390;8.072;2023-12-20T09:50:39;10.00;;;2.88;;
22711;SDS011;11523;50.390;8.072;2023-12-20T09:53:05;8.40;;;2.80;;
22711;SDS011;11523;50.390;8.072;2023-12-20T09:55:34;9.60;;;2.50;;
22711;SDS011;11523;50.390;8.072;2023-12-20T09:58:01;9.43;;;3.40;;
22711;SDS011;11523;50.390;8.072;2023-12-20T10:00:27;8.07;;;2.95;;
22711;SDS011;11523;50.390;8.072;2023-12-20T10:02:56;8.55;;;2.35;;
22711;SDS011;11523;50.390;8.072;2023-12-20T10:05:26;11.32;;;2.67;;
22711;SDS011;11523;50.390;8.072;2023-12-20T10:07:52;8.07;;;2.83;;
22711;SDS011;11523;50.390;8.072;2023-12-20T10:10:18;9.13;;;2.38;;
22711;SDS011;11523;50.390;8.072;2023-12-20T10:15:29;7.35;;;2.83;;
22711;SDS011;11523;50.390;8.072;2023-12-20T10:17:56;11.07;;;2.65;;
22711;SDS011;11523;50.390;8.072;2023-12-20T10:20:22;16.90;;;2.33;;
22711;SDS011;11523;50.390;8.072;2023-12-20T10:22:48;5.05;;;2.15;;
22711;SDS011;11523;50.390;8.072;2023-12-20T10:25:14;9.18;;;2.67;;
22711;SDS011;11523;50.390;8.072;2023-12-20T10:27:39;8.77;;;2.60;;
22711;SDS011;11523;50.390;8.072;2023-12-20T10:30:06;8.25;;;3.00;;
22711;SDS011;11523;50.390;8.072;2023-12-20T10:32:32;4.85;;;1.42;;
22711;SDS011;11523;50.390;8.072;2023-12-20T10:34:58;9.15;;;2.55;;
22711;SDS011;11523;50.390;8.072;2023-12-20T10:37:24;5.03;;;1.60;;
22711;SDS011;11523;50.390;8.072;2023-12-20T10:39:51;9.88;;;2.78;;
22711;SDS011;11523;50.390;8.072;2023-12-20T10:42:21;8.60;;;2.38;;
22711;SDS011;11523;50.390;8.072;2023-12-20T10:44:47;7.28;;;2.20;;
22711;SDS011;11523;50.390;8.072;2023-12-20T10:47:14;3.90;;;1.77;;
22711;SDS011;11523;50.390;8.072;2023-12-20T10:49:40;8.70;;;2.70;;
22711;SDS011;11523;50.390;8.072;2023-12-20T10:52:07;3.45;;;1.40;;
22711;SDS011;11523;50.390;8.072;2023-12-20T10:54:34;4.78;;;2.20;;
22711;SDS011;11523;50.390;8.072;2023-12-20T10:57:00;8.35;;;2.70;;
22711;SDS011;11523;50.390;8.072;2023-12-20T10:59:29;6.82;;;2.45;;
22711;SDS011;11523;50.390;8.072;2023-12-20T11:01:58;8.98;;;2.58;;
22711;SDS011;11523;50.390;8.072;2023-12-20T11:04:34;12.02;;;2.55;;
22711;SDS011;11523;50.390;8.072;2023-12-20T11:07:06;8.38;;;1.88;;
22711;SDS011;11523;50.390;8.072;2023-12-20T11:09:38;6.45;;;1.83;;
22711;SDS011;11523;50.390;8.072;2023-12-20T11:12:13;8.95;;;2.38;;
22711;SDS011;11523;50.390;8.072;2023-12-20T11:14:48;11.88;;;3.10;;
22711;SDS011;11523;50.390;8.072;2023-12-20T11:17:14;11.47;;;2.80;;
22711;SDS011;11523;50.390;8.072;2023-12-20T11:22:15;10.02;;;2.70;;
22711;SDS011;11523;50.390;8.072;2023-12-20T11:24:44;5.57;;;2.53;;
22711;SDS011;11523;50.390;8.072;2023-12-20T11:27:12;6.10;;;1.98;;
22711;SDS011;11523;50.390;8.072;2023-12-20T11:29:38;8.52;;;2.35;;
22711;SDS011;11523;50.390;8.072;2023-12-20T11:32:50;7.90;;;2.55;;
22711;SDS011;11523;50.390;8.072;2023-12-20T11:35:01;8.43;;;2.88;;
22711;SDS011;11523;50.390;8.072;2023-12-20T11:37:31;8.02;;;2.75;;
22711;SDS011;11523;50.390;8.072;2023-12-20T11:40:07;11.93;;;2.97;;
22711;SDS011;11523;50.390;8.072;2023-12-20T11:42:40;5.10;;;2.13;;
22711;SDS011;11523;50.390;8.072;2023-12-20T11:45:24;9.55;;;2.40;;
22711;SDS011;11523;50.390;8.072;2023-12-20T11:47:51;6.38;;;1.92;;
22711;SDS011;11523;50.390;8.072;2023-12-20T11:50:20;7.88;;;2.78;;
22711;SDS011;11523;50.390;8.072;2023-12-20T11:52:47;7.43;;;2.10;;
22711;SDS011;11523;50.390;8.072;2023-12-20T11:55:13;12.60;;;2.72;;
22711;SDS011;11523;50.390;8.072;2023-12-20T11:57:39;10.05;;;2.42;;
22711;SDS011;11523;50.390;8.072;2023-12-20T12:00:05;11.95;;;2.50;;
22711;SDS011;11523;50.390;8.072;2023-12-20T12:02:38;9.13;;;2.50;;
22711;SDS011;11523;50.390;8.072;2023-12-20T12:05:04;6.95;;;2.15;;
22711;SDS011;11523;50.390;8.072;2023-12-20T12:07:30;5.65;;;2.05;;
22711;SDS011;11523;50.390;8.072;2023-12-20T12:09:56;6.50;;;2.58;;
22711;SDS011;11523;50.390;8.072;2023-12-20T12:12:23;8.30;;;2.80;;
22711;SDS011;11523;50.390;8.072;2023-12-20T12:14:50;9.18;;;3.58;;
22711;SDS011;11523;50.390;8.072;2023-12-20T12:17:16;8.27;;;2.65;;
22711;SDS011;11523;50.390;8.072;2023-12-20T12:19:42;10.75;;;3.50;;
22711;SDS011;11523;50.390;8.072;2023-12-20T12:22:15;6.60;;;2.88;;
22711;SDS011;11523;50.390;8.072;2023-12-20T12:24:42;9.85;;;2.95;;
22711;SDS011;11523;50.390;8.072;2023-12-20T12:27:08;7.68;;;2.28;;
22711;SDS011;11523;50.390;8.072;2023-12-20T12:29:35;8.02;;;3.08;;
22711;SDS011;11523;50.390;8.072;2023-12-20T12:32:01;8.73;;;2.60;;
22711;SDS011;11523;50.390;8.072;2023-12-20T12:34:31;9.60;;;2.83;;
22711;SDS011;11523;50.390;8.072;2023-12-20T12:37:04;11.68;;;3.33;;
22711;SDS011;11523;50.390;8.072;2023-12-20T12:39:30;9.23;;;2.83;;
22711;SDS011;11523;50.390;8.072;2023-12-20T12:41:56;11.48;;;2.70;;
22711;SDS011;11523;50.390;8.072;2023-12-20T12:44:22;10.85;;;2.72;;
22711;SDS011;11523;50.390;8.072;2023-12-20T12:46:51;6.00;;;2.60;;
22711;SDS011;11523;50.390;8.072;2023-12-20T12:49:19;9.45;;;2.97;;
22711;SDS011;11523;50.390;8.072;2023-12-20T12:51:46;12.02;;;3.50;;
22711;SDS011;11523;50.390;8.072;2023-12-20T12:54:12;8.00;;;2.50;;
22711;SDS011;11523;50.390;8.072;2023-12-20T12:56:40;10.98;;;3.20;;
22711;SDS011;11523;50.390;8.072;2023-12-20T12:59:06;8.25;;;3.20;;
22711;SDS011;11523;50.390;8.072;2023-12-20T13:01:32;8.32;;;2.92;;
22711;SDS011;11523;50.390;8.072;2023-12-20T13:03:58;6.88;;;2.35;;
22711;SDS011;11523;50.390;8.072;2023-12-20T13:06:26;6.93;;;2.30;;
22711;SDS011;11523;50.390;8.072;2023-12-20T13:08:52;6.38;;;2.42;;
22711;SDS011;11523;50.390;8.072;2023-12-20T13:11:18;6.03;;;2.53;;
22711;SDS011;11523;50.390;8.072;2023-12-20T13:13:44;10.75;;;3.17;;
22711;SDS011;11523;50.390;8.072;2023-12-20T13:16:10;6.78;;;2.05;;
22711;SDS011;11523;50.390;8.072;2023-12-20T13:18:36;5.05;;;1.80;;
22711;SDS011;11523;50.390;8.072;2023-12-20T13:21:02;8.13;;;3.00;;
22711;SDS011;11523;50.390;8.072;2023-12-20T13:23:28;9.50;;;3.50;;
22711;SDS011;11523;50.390;8.072;2023-12-20T13:25:54;9.18;;;3.00;;
22711;SDS011;11523;50.390;8.072;2023-12-20T13:28:20;6.32;;;2.67;;
22711;SDS011;11523;50.390;8.072;2023-12-20T13:30:46;4.55;;;1.90;;
22711;SDS011;11523;50.390;8.072;2023-12-20T13:33:12;6.55;;;2.90;;
22711;SDS011;11523;50.390;8.072;2023-12-20T13:35:37;9.88;;;3.13;;
22711;SDS011;11523;50.390;8.072;2023-12-20T13:38:04;11.95;;;3.58;;
22711;SDS011;11523;50.390;8.072;2023-12-20T13:40:37;13.60;;;3.40;;
22711;SDS011;11523;50.390;8.072;2023-12-20T13:43:03;4.28;;;2.15;;
22711;SDS011;11523;50.390;8.072;2023-12-20T13:45:29;10.75;;;3.05;;
22711;SDS011;11523;50.390;8.072;2023-12-20T13:47:55;7.63;;;2.83;;
22711;SDS011;11523;50.390;8.072;2023-12-20T13:50:21;10.00;;;3.45;;
22711;SDS011;11523;50.390;8.072;2023-12-20T13:52:47;11.23;;;3.40;;
22711;SDS011;11523;50.390;8.072;2023-12-20T13:55:13;9.38;;;3.60;;
22711;SDS011;11523;50.390;8.072;2023-12-20T13:57:39;7.75;;;2.80;;
22711;SDS011;11523;50.390;8.072;2023-12-20T14:00:06;5.50;;;1.80;;
22711;SDS011;11523;50.390;8.072;2023-12-20T14:02:39;4.90;;;2.00;;
22711;SDS011;11523;50.390;8.072;2023-12-20T14:05:05;4.80;;;1.80;;
22711;SDS011;11523;50.390;8.072;2023-12-20T14:07:31;6.55;;;2.78;;
22711;SDS011;11523;50.390;8.072;2023-12-20T14:09:57;7.80;;;3.08;;
22711;SDS011;11523;50.390;8.072;2023-12-20T14:12:24;12.02;;;3.50;;
22711;SDS011;11523;50.390;8.072;2023-12-20T14:14:50;7.57;;;3.03;;
22711;SDS011;11523;50.390;8.072;2023-12-20T14:17:16;5.90;;;2.38;;
22711;SDS011;11523;50.390;8.072;2023-12-20T14:19:43;8.48;;;2.75;;
22711;SDS011;11523;50.390;8.072;2023-12-20T14:22:09;3.05;;;1.98;;
22711;SDS011;11523;50.390;8.072;2023-12-20T14:24:35;5.32;;;2.08;;
22711;SDS011;11523;50.390;8.072;2023-12-20T14:27:01;7.43;;;2.88;;
22711;SDS011;11523;50.390;8.072;2023-12-20T14:29:27;7.20;;;2.50;;
22711;SDS011;11523;50.390;8.072;2023-12-20T14:31:53;4.50;;;2.03;;
22711;SDS011;11523;50.390;8.072;2023-12-20T14:34:19;5.22;;;2.67;;
22711;SDS011;11523;50.390;8.072;2023-12-20T14:36:45;4.82;;;1.95;;
22711;SDS011;11523;50.390;8.072;2023-12-20T14:39:11;3.83;;;2.03;;
22711;SDS011;11523;50.390;8.072;2023-12-20T14:41:38;7.32;;;3.08;;
22711;SDS011;11523;50.390;8.072;2023-12-20T14:44:05;10.27;;;2.78;;
22711;SDS011;11523;50.390;8.072;2023-12-20T14:46:38;4.80;;;2.13;;
22711;SDS011;11523;50.390;8.072;2023-12-20T14:49:04;7.00;;;2.72;;